sensor_id;sensor_type;location;lat;lon;timestamp;pressure;altitude;pressure_sealevel;temperature;humidity
85812;BME280;76886;52.146;20.718;2024-03-07T00:00:30;101590;;;3.3;57.2
85812;BME280;76886;52.146;20.718;2024-03-07T00:01:30;101580;;;3.3;57.1
85812;BME280;76886;52.146;20.718;2024-03-07T00:02:30;101580;;;3.2;57.8
85812;BME280;76886;52.146;20.718;2024-03-07T00:03:30;101580;;;3.2;57.9
85812;BME280;76886;52.146;20.718;2024-03-07T00:04:30;101580;;;3.3;58.0
85812;BME280;76886;52.146;20.718;2024-03-07T00:05:30;101580;;;3.3;58.2
85812;BME280;76886;52.146;20.718;2024-03-07T00:06:30;101580;;;3.2;58.5
85812;BME280;76886;52.146;20.718;2024-03-07T00:07:30;101580;;;3.2;58.3
85812;BME280;76886;52.146;20.718;2024-03-07T00:08:30;101580;;;3.3;58.5
85812;BME280;76886;52.146;20.718;2024-03-07T00:09:31;101580;;;3.3;58.7
85812;BME280;76886;52.146;20.718;2024-03-07T00:10:30;101580;;;3.2;58.3
85812;BME280;76886;52.146;20.718;2024-03-07T00:11:30;101580;;;3.2;58.8
85812;BME280;76886;52.146;20.718;2024-03-07T00:12:30;101580;;;3.2;58.6
85812;BME280;76886;52.146;20.718;2024-03-07T00:13:30;101580;;;3.2;58.5
85812;BME280;76886;52.146;20.718;2024-03-07T00:14:31;101580;;;3.2;59.1
85812;BME280;76886;52.146;20.718;2024-03-07T00:15:30;101580;;;3.2;59.1
85812;BME280;76886;52.146;20.718;2024-03-07T00:16:30;101580;;;3.3;59.1
85812;BME280;76886;52.146;20.718;2024-03-07T00:17:30;101580;;;3.3;58.0
85812;BME280;76886;52.146;20.718;2024-03-07T00:18:30;101580;;;3.4;58.0
85812;BME280;76886;52.146;20.718;2024-03-07T00:19:30;101580;;;3.4;57.9
85812;BME280;76886;52.146;20.718;2024-03-07T00:20:30;101580;;;3.7;57.7
85812;BME280;76886;52.146;20.718;2024-03-07T00:21:30;101580;;;3.8;57.0
85812;BME280;76886;52.146;20.718;2024-03-07T00:22:30;101580;;;3.6;56.9
85812;BME280;76886;52.146;20.718;2024-03-07T00:23:30;101580;;;3.6;57.0
85812;BME280;76886;52.146;20.718;2024-03-07T00:24:30;101580;;;3.5;57.8
85812;BME280;76886;52.146;20.718;2024-03-07T00:25:30;101580;;;3.4;57.6
85812;BME280;76886;52.146;20.718;2024-03-07T00:26:30;101580;;;3.3;58.1
85812;BME280;76886;52.146;20.718;2024-03-07T00:27:30;101570;;;3.3;58.0
85812;BME280;76886;52.146;20.718;2024-03-07T00:28:30;101570;;;3.2;58.6
85812;BME280;76886;52.146;20.718;2024-03-07T00:29:30;101570;;;3.2;58.5
85812;BME280;76886;52.146;20.718;2024-03-07T00:30:30;101570;;;3.1;58.2
85812;BME280;76886;52.146;20.718;2024-03-07T00:31:30;101570;;;3.2;58.5
85812;BME280;76886;52.146;20.718;2024-03-07T00:32:30;101570;;;3.2;57.2
85812;BME280;76886;52.146;20.718;2024-03-07T00:33:30;101570;;;3.1;57.5
85812;BME280;76886;52.146;20.718;2024-03-07T00:34:30;101570;;;3.1;57.4
85812;BME280;76886;52.146;20.718;2024-03-07T00:35:30;101580;;;3.2;57.8
85812;BME280;76886;52.146;20.718;2024-03-07T00:36:30;101580;;;3.2;57.3
85812;BME280;76886;52.146;20.718;2024-03-07T00:37:30;101570;;;3.2;57.8
85812;BME280;76886;52.146;20.718;2024-03-07T00:38:30;101580;;;3.3;58.5
85812;BME280;76886;52.146;20.718;2024-03-07T00:39:30;101580;;;3.3;58.0
85812;BME280;76886;52.146;20.718;2024-03-07T00:40:30;101580;;;3.4;57.7
85812;BME280;76886;52.146;20.718;2024-03-07T00:41:30;101580;;;3.5;57.1
85812;BME280;76886;52.146;20.718;2024-03-07T00:42:30;101570;;;3.5;57.0
85812;BME280;76886;52.146;20.718;2024-03-07T00:43:30;101580;;;3.4;57.6
85812;BME280;76886;52.146;20.718;2024-03-07T00:44:30;101580;;;3.3;56.9
85812;BME280;76886;52.146;20.718;2024-03-07T00:45:30;101570;;;3.2;57.8
85812;BME280;76886;52.146;20.718;2024-03-07T00:46:30;101570;;;3.2;57.5
85812;BME280;76886;52.146;20.718;2024-03-07T00:47:30;101580;;;3.4;58.3
85812;BME280;76886;52.146;20.718;2024-03-07T00:48:30;101580;;;3.3;57.4
85812;BME280;76886;52.146;20.718;2024-03-07T00:49:30;101570;;;3.2;57.9
85812;BME280;76886;52.146;20.718;2024-03-07T00:50:30;101580;;;3.2;58.5
85812;BME280;76886;52.146;20.718;2024-03-07T00:51:30;101570;;;3.2;58.3
85812;BME280;76886;52.146;20.718;2024-03-07T00:52:30;101580;;;3.3;57.7
85812;BME280;76886;52.146;20.718;2024-03-07T00:53:30;101580;;;3.2;57.7
85812;BME280;76886;52.146;20.718;2024-03-07T00:54:30;101570;;;3.3;57.8
85812;BME280;76886;52.146;20.718;2024-03-07T00:55:30;101580;;;3.4;57.6
85812;BME280;76886;52.146;20.718;2024-03-07T00:56:30;101580;;;3.6;58.0
85812;BME280;76886;52.146;20.718;2024-03-07T00:57:30;101580;;;3.7;57.2
85812;BME280;76886;52.146;20.718;2024-03-07T00:58:30;101580;;;3.7;57.1
85812;BME280;76886;52.146;20.718;2024-03-07T00:59:30;101590;;;3.7;57.1
85812;BME280;76886;52.146;20.718;2024-03-07T01:00:30;101580;;;3.4;58.8
85812;BME280;76886;52.146;20.718;2024-03-07T01:01:30;101580;;;3.3;59.9
85812;BME280;76886;52.146;20.718;2024-03-07T01:02:30;101580;;;3.2;60.3
85812;BME280;76886;52.146;20.718;2024-03-07T01:03:30;101580;;;3.1;60.4
85812;BME280;76886;52.146;20.718;2024-03-07T01:04:30;101580;;;3.1;60.9
85812;BME280;76886;52.146;20.718;2024-03-07T01:05:30;101580;;;3.1;61.6
85812;BME280;76886;52.146;20.718;2024-03-07T01:06:30;101580;;;3.2;61.7
85812;BME280;76886;52.146;20.718;2024-03-07T01:07:36;101580;;;3.2;61.6
85812;BME280;76886;52.146;20.718;2024-03-07T01:08:30;101580;;;3.1;62.8
85812;BME280;76886;52.146;20.718;2024-03-07T01:15:31;101570;;;3.2;63.1
85812;BME280;76886;52.146;20.718;2024-03-07T01:16:30;101580;;;3.4;62.5
85812;BME280;76886;52.146;20.718;2024-03-07T01:17:30;101580;;;3.5;62.0
85812;BME280;76886;52.146;20.718;2024-03-07T01:18:30;101570;;;3.4;61.6
85812;BME280;76886;52.146;20.718;2024-03-07T01:19:30;101570;;;3.4;61.7
85812;BME280;76886;52.146;20.718;2024-03-07T01:20:30;101580;;;3.5;60.8
85812;BME280;76886;52.146;20.718;2024-03-07T01:21:30;101570;;;3.4;61.1
85812;BME280;76886;52.146;20.718;2024-03-07T01:22:30;101570;;;3.3;61.5
85812;BME280;76886;52.146;20.718;2024-03-07T01:23:30;101580;;;3.5;60.8
85812;BME280;76886;52.146;20.718;2024-03-07T01:24:30;101580;;;3.5;60.6
85812;BME280;76886;52.146;20.718;2024-03-07T01:25:30;101580;;;3.3;60.4
85812;BME280;76886;52.146;20.718;2024-03-07T01:26:30;101580;;;3.3;60.6
85812;BME280;76886;52.146;20.718;2024-03-07T01:27:30;101580;;;3.7;60.1
85812;BME280;76886;52.146;20.718;2024-03-07T01:28:30;101580;;;3.7;58.8
85812;BME280;76886;52.146;20.718;2024-03-07T01:29:30;101580;;;3.9;58.6
85812;BME280;76886;52.146;20.718;2024-03-07T01:30:30;101580;;;3.9;58.3
85812;BME280;76886;52.146;20.718;2024-03-07T01:31:30;101580;;;3.6;59.1
85812;BME280;76886;52.146;20.718;2024-03-07T01:32:30;101580;;;3.7;59.0
85812;BME280;76886;52.146;20.718;2024-03-07T01:33:30;101580;;;3.5;58.9
85812;BME280;76886;52.146;20.718;2024-03-07T01:34:30;101580;;;3.7;59.1
85812;BME280;76886;52.146;20.718;2024-03-07T01:35:30;101590;;;4.0;58.2
85812;BME280;76886;52.146;20.718;2024-03-07T01:36:30;101590;;;3.9;58.3
85812;BME280;76886;52.146;20.718;2024-03-07T01:37:30;101580;;;4.1;57.6
85812;BME280;76886;52.146;20.718;2024-03-07T01:38:30;101580;;;4.1;57.3
85812;BME280;76886;52.146;20.718;2024-03-07T01:39:30;101580;;;3.9;58.0
85812;BME280;76886;52.146;20.718;2024-03-07T01:40:30;101590;;;3.7;58.7
85812;BME280;76886;52.146;20.718;2024-03-07T01:41:30;101580;;;3.5;59.6
85812;BME280;76886;52.146;20.718;2024-03-07T01:42:30;101580;;;3.4;59.7
85812;BME280;76886;52.146;20.718;2024-03-07T01:43:30;101580;;;3.2;60.2
85812;BME280;76886;52.146;20.718;2024-03-07T01:44:30;101580;;;3.0;61.6
85812;BME280;76886;52.146;20.718;2024-03-07T01:45:30;101580;;;3.0;62.1
85812;BME280;76886;52.146;20.718;2024-03-07T01:46:30;101580;;;3.0;62.1
85812;BME280;76886;52.146;20.718;2024-03-07T01:47:30;101580;;;3.3;61.7
85812;BME280;76886;52.146;20.718;2024-03-07T01:48:30;101580;;;3.6;61.0
85812;BME280;76886;52.146;20.718;2024-03-07T01:49:30;101580;;;3.9;60.3
85812;BME280;76886;52.146;20.718;2024-03-07T01:50:30;101590;;;3.6;60.6
85812;BME280;76886;52.146;20.718;2024-03-07T01:51:30;101590;;;3.6;61.6
85812;BME280;76886;52.146;20.718;2024-03-07T01:52:30;101590;;;3.8;61.2
85812;BME280;76886;52.146;20.718;2024-03-07T01:53:30;101580;;;3.5;61.7
85812;BME280;76886;52.146;20.718;2024-03-07T01:54:30;101590;;;3.2;63.0
85812;BME280;76886;52.146;20.718;2024-03-07T01:55:30;101590;;;3.3;63.7
85812;BME280;76886;52.146;20.718;2024-03-07T01:56:30;101590;;;3.1;62.9
85812;BME280;76886;52.146;20.718;2024-03-07T01:57:30;101590;;;3.0;63.8
85812;BME280;76886;52.146;20.718;2024-03-07T01:58:30;101580;;;3.0;64.5
85812;BME280;76886;52.146;20.718;2024-03-07T01:59:30;101590;;;3.0;63.8
85812;BME280;76886;52.146;20.718;2024-03-07T02:00:30;101590;;;2.9;64.4
85812;BME280;76886;52.146;20.718;2024-03-07T02:01:30;101590;;;2.9;64.9
85812;BME280;76886;52.146;20.718;2024-03-07T02:02:30;101590;;;3.1;63.4
85812;BME280;76886;52.146;20.718;2024-03-07T02:03:30;101580;;;3.2;63.5
85812;BME280;76886;52.146;20.718;2024-03-07T02:04:30;101580;;;3.3;62.9
85812;BME280;76886;52.146;20.718;2024-03-07T02:05:30;101590;;;3.6;63.2
85812;BME280;76886;52.146;20.718;2024-03-07T02:06:30;101590;;;3.7;62.1
85812;BME280;76886;52.146;20.718;2024-03-07T02:07:30;101590;;;3.7;61.5
85812;BME280;76886;52.146;20.718;2024-03-07T02:08:30;101590;;;3.4;64.0
85812;BME280;76886;52.146;20.718;2024-03-07T02:09:30;101590;;;3.3;62.6
85812;BME280;76886;52.146;20.718;2024-03-07T02:10:30;101590;;;3.3;62.5
85812;BME280;76886;52.146;20.718;2024-03-07T02:11:30;101590;;;3.5;62.2
85812;BME280;76886;52.146;20.718;2024-03-07T02:12:30;101590;;;3.7;61.7
85812;BME280;76886;52.146;20.718;2024-03-07T02:13:30;101590;;;3.5;61.3
85812;BME280;76886;52.146;20.718;2024-03-07T02:14:30;101590;;;3.2;62.3
85812;BME280;76886;52.146;20.718;2024-03-07T02:15:30;101590;;;3.0;63.7
85812;BME280;76886;52.146;20.718;2024-03-07T02:16:30;101590;;;2.9;63.8
85812;BME280;76886;52.146;20.718;2024-03-07T02:17:30;101590;;;2.9;64.0
85812;BME280;76886;52.146;20.718;2024-03-07T02:18:30;101590;;;2.8;63.8
85812;BME280;76886;52.146;20.718;2024-03-07T02:19:30;101590;;;2.7;64.0
85812;BME280;76886;52.146;20.718;2024-03-07T02:20:30;101590;;;2.6;64.5
85812;BME280;76886;52.146;20.718;2024-03-07T02:21:30;101590;;;2.6;64.8
85812;BME280;76886;52.146;20.718;2024-03-07T02:22:30;101590;;;2.8;64.5
85812;BME280;76886;52.146;20.718;2024-03-07T02:23:30;101590;;;3.2;63.6
85812;BME280;76886;52.146;20.718;2024-03-07T02:24:30;101590;;;3.2;63.0
85812;BME280;76886;52.146;20.718;2024-03-07T02:25:30;101580;;;3.3;62.8
85812;BME280;76886;52.146;20.718;2024-03-07T02:26:30;101590;;;3.4;62.6
85812;BME280;76886;52.146;20.718;2024-03-07T02:27:30;101590;;;3.7;62.0
85812;BME280;76886;52.146;20.718;2024-03-07T02:28:30;101590;;;4.1;61.3
85812;BME280;76886;52.146;20.718;2024-03-07T02:29:30;101590;;;4.0;60.2
85812;BME280;76886;52.146;20.718;2024-03-07T02:30:30;101590;;;3.9;59.8
85812;BME280;76886;52.146;20.718;2024-03-07T02:31:30;101590;;;3.7;59.8
85812;BME280;76886;52.146;20.718;2024-03-07T02:32:30;101590;;;4.0;59.7
85812;BME280;76886;52.146;20.718;2024-03-07T02:33:30;101580;;;4.1;58.6
85812;BME280;76886;52.146;20.718;2024-03-07T02:34:30;101590;;;4.1;58.5
85812;BME280;76886;52.146;20.718;2024-03-07T02:35:30;101590;;;3.8;58.7
85812;BME280;76886;52.146;20.718;2024-03-07T02:36:30;101590;;;3.5;60.0
85812;BME280;76886;52.146;20.718;2024-03-07T02:37:30;101590;;;3.5;60.0
85812;BME280;76886;52.146;20.718;2024-03-07T02:38:30;101590;;;3.7;59.6
85812;BME280;76886;52.146;20.718;2024-03-07T02:39:30;101590;;;3.8;59.2
85812;BME280;76886;52.146;20.718;2024-03-07T02:40:30;101590;;;3.7;59.8
85812;BME280;76886;52.146;20.718;2024-03-07T02:41:30;101590;;;3.4;60.7
85812;BME280;76886;52.146;20.718;2024-03-07T02:42:30;101590;;;3.2;61.4
85812;BME280;76886;52.146;20.718;2024-03-07T02:43:30;101590;;;3.0;61.9
85812;BME280;76886;52.146;20.718;2024-03-07T02:44:30;101590;;;2.9;62.4
85812;BME280;76886;52.146;20.718;2024-03-07T02:45:30;101590;;;2.9;62.6
85812;BME280;76886;52.146;20.718;2024-03-07T02:46:30;101590;;;2.8;62.8
85812;BME280;76886;52.146;20.718;2024-03-07T02:47:30;101590;;;3.0;62.6
85812;BME280;76886;52.146;20.718;2024-03-07T02:48:30;101590;;;3.4;61.8
85812;BME280;76886;52.146;20.718;2024-03-07T02:49:30;101590;;;3.6;61.1
85812;BME280;76886;52.146;20.718;2024-03-07T02:50:30;101590;;;3.9;61.4
85812;BME280;76886;52.146;20.718;2024-03-07T02:51:30;101590;;;4.0;59.8
85812;BME280;76886;52.146;20.718;2024-03-07T02:52:30;101590;;;4.1;59.0
85812;BME280;76886;52.146;20.718;2024-03-07T02:53:30;101590;;;3.7;60.2
85812;BME280;76886;52.146;20.718;2024-03-07T02:54:30;101590;;;3.8;60.1
85812;BME280;76886;52.146;20.718;2024-03-07T02:55:31;101590;;;3.4;60.8
85812;BME280;76886;52.146;20.718;2024-03-07T02:56:30;101580;;;3.1;61.8
85812;BME280;76886;52.146;20.718;2024-03-07T02:57:30;101590;;;3.0;62.1
85812;BME280;76886;52.146;20.718;2024-03-07T02:58:30;101590;;;2.8;63.2
85812;BME280;76886;52.146;20.718;2024-03-07T02:59:30;101590;;;2.5;63.7
85812;BME280;76886;52.146;20.718;2024-03-07T03:00:30;101580;;;2.7;64.0
85812;BME280;76886;52.146;20.718;2024-03-07T03:01:30;101590;;;2.6;63.8
85812;BME280;76886;52.146;20.718;2024-03-07T03:02:30;101590;;;2.9;63.3
85812;BME280;76886;52.146;20.718;2024-03-07T03:03:30;101590;;;2.7;63.2
85812;BME280;76886;52.146;20.718;2024-03-07T03:04:30;101590;;;2.8;63.0
85812;BME280;76886;52.146;20.718;2024-03-07T03:05:30;101590;;;2.3;64.5
85812;BME280;76886;52.146;20.718;2024-03-07T03:06:30;101590;;;2.1;65.3
85812;BME280;76886;52.146;20.718;2024-03-07T03:07:30;101590;;;2.1;65.5
85812;BME280;76886;52.146;20.718;2024-03-07T03:08:30;101590;;;2.0;65.6
85812;BME280;76886;52.146;20.718;2024-03-07T03:09:30;101590;;;2.1;65.5
85812;BME280;76886;52.146;20.718;2024-03-07T03:10:30;101590;;;1.9;66.0
85812;BME280;76886;52.146;20.718;2024-03-07T03:11:30;101590;;;1.8;66.5
85812;BME280;76886;52.146;20.718;2024-03-07T03:12:30;101590;;;1.7;66.8
85812;BME280;76886;52.146;20.718;2024-03-07T03:13:30;101590;;;1.6;67.6
85812;BME280;76886;52.146;20.718;2024-03-07T03:14:30;101590;;;1.6;67.5
85812;BME280;76886;52.146;20.718;2024-03-07T03:15:30;101590;;;1.8;66.9
85812;BME280;76886;52.146;20.718;2024-03-07T03:16:30;101590;;;2.1;66.0
85812;BME280;76886;52.146;20.718;2024-03-07T03:17:30;101590;;;2.1;66.5
85812;BME280;76886;52.146;20.718;2024-03-07T03:18:30;101590;;;2.4;65.2
85812;BME280;76886;52.146;20.718;2024-03-07T03:19:30;101590;;;2.8;64.6
85812;BME280;76886;52.146;20.718;2024-03-07T03:20:30;101590;;;2.5;65.0
85812;BME280;76886;52.146;20.718;2024-03-07T03:21:30;101590;;;2.3;65.1
85812;BME280;76886;52.146;20.718;2024-03-07T03:22:30;101590;;;2.3;65.5
85812;BME280;76886;52.146;20.718;2024-03-07T03:23:30;101590;;;2.2;66.1
85812;BME280;76886;52.146;20.718;2024-03-07T03:24:30;101590;;;2.1;66.3
85812;BME280;76886;52.146;20.718;2024-03-07T03:25:30;101590;;;1.9;67.2
85812;BME280;76886;52.146;20.718;2024-03-07T03:26:30;101590;;;1.7;67.5
85812;BME280;76886;52.146;20.718;2024-03-07T03:27:30;101600;;;1.8;67.3
85812;BME280;76886;52.146;20.718;2024-03-07T03:28:30;101590;;;1.7;67.5
85812;BME280;76886;52.146;20.718;2024-03-07T03:29:30;101590;;;1.8;67.8
85812;BME280;76886;52.146;20.718;2024-03-07T03:30:30;101590;;;1.6;67.4
85812;BME280;76886;52.146;20.718;2024-03-07T03:31:30;101590;;;1.5;67.8
85812;BME280;76886;52.146;20.718;2024-03-07T03:32:30;101590;;;1.7;67.5
85812;BME280;76886;52.146;20.718;2024-03-07T03:33:30;101600;;;1.6;68.0
85812;BME280;76886;52.146;20.718;2024-03-07T03:34:30;101590;;;1.5;68.5
85812;BME280;76886;52.146;20.718;2024-03-07T03:35:30;101590;;;1.6;68.1
85812;BME280;76886;52.146;20.718;2024-03-07T03:36:30;101600;;;1.9;66.9
85812;BME280;76886;52.146;20.718;2024-03-07T03:37:30;101600;;;1.9;66.4
85812;BME280;76886;52.146;20.718;2024-03-07T03:38:30;101600;;;1.9;66.5
85812;BME280;76886;52.146;20.718;2024-03-07T03:39:30;101600;;;2.0;66.6
85812;BME280;76886;52.146;20.718;2024-03-07T03:40:30;101600;;;2.0;66.8
85812;BME280;76886;52.146;20.718;2024-03-07T03:41:30;101600;;;1.9;67.0
85812;BME280;76886;52.146;20.718;2024-03-07T03:42:30;101600;;;2.0;66.2
85812;BME280;76886;52.146;20.718;2024-03-07T03:43:30;101600;;;2.1;65.8
85812;BME280;76886;52.146;20.718;2024-03-07T03:44:30;101600;;;1.8;67.0
85812;BME280;76886;52.146;20.718;2024-03-07T03:45:30;101600;;;1.6;67.3
85812;BME280;76886;52.146;20.718;2024-03-07T03:46:30;101600;;;1.3;68.4
85812;BME280;76886;52.146;20.718;2024-03-07T03:47:30;101600;;;1.3;68.7
85812;BME280;76886;52.146;20.718;2024-03-07T03:48:30;101600;;;1.3;68.5
85812;BME280;76886;52.146;20.718;2024-03-07T03:49:30;101600;;;1.1;69.1
85812;BME280;76886;52.146;20.718;2024-03-07T03:50:30;101600;;;1.2;69.0
85812;BME280;76886;52.146;20.718;2024-03-07T03:51:30;101610;;;1.1;69.4
85812;BME280;76886;52.146;20.718;2024-03-07T03:52:31;101600;;;1.0;69.9
85812;BME280;76886;52.146;20.718;2024-03-07T03:53:30;101610;;;0.7;70.8
85812;BME280;76886;52.146;20.718;2024-03-07T03:54:30;101610;;;0.6;71.5
85812;BME280;76886;52.146;20.718;2024-03-07T03:55:30;101600;;;0.5;71.8
85812;BME280;76886;52.146;20.718;2024-03-07T03:56:30;101600;;;0.6;71.8
85812;BME280;76886;52.146;20.718;2024-03-07T03:57:30;101600;;;0.8;71.0
85812;BME280;76886;52.146;20.718;2024-03-07T03:58:30;101600;;;0.9;70.1
85812;BME280;76886;52.146;20.718;2024-03-07T03:59:30;101610;;;0.8;70.5
85812;BME280;76886;52.146;20.718;2024-03-07T04:00:30;101610;;;0.8;70.3
85812;BME280;76886;52.146;20.718;2024-03-07T04:01:30;101600;;;0.8;70.3
85812;BME280;76886;52.146;20.718;2024-03-07T04:02:30;101610;;;0.7;70.9
85812;BME280;76886;52.146;20.718;2024-03-07T04:03:30;101610;;;0.5;71.4
85812;BME280;76886;52.146;20.718;2024-03-07T04:04:30;101610;;;0.6;71.3
85812;BME280;76886;52.146;20.718;2024-03-07T04:05:30;101610;;;0.6;71.2
85812;BME280;76886;52.146;20.718;2024-03-07T04:06:30;101610;;;0.8;70.9
85812;BME280;76886;52.146;20.718;2024-03-07T04:07:30;101610;;;0.8;70.7
85812;BME280;76886;52.146;20.718;2024-03-07T04:08:30;101610;;;0.7;70.5
85812;BME280;76886;52.146;20.718;2024-03-07T04:09:30;101610;;;0.6;71.1
85812;BME280;76886;52.146;20.718;2024-03-07T04:10:30;101610;;;0.5;71.2
85812;BME280;76886;52.146;20.718;2024-03-07T04:11:30;101610;;;0.7;70.6
85812;BME280;76886;52.146;20.718;2024-03-07T04:12:30;101600;;;0.8;70.4
85812;BME280;76886;52.146;20.718;2024-03-07T04:13:30;101600;;;1.1;69.1
85812;BME280;76886;52.146;20.718;2024-03-07T04:14:30;101600;;;0.9;69.4
85812;BME280;76886;52.146;20.718;2024-03-07T04:15:30;101600;;;0.7;70.2
85812;BME280;76886;52.146;20.718;2024-03-07T04:16:30;101600;;;0.8;70.1
85812;BME280;76886;52.146;20.718;2024-03-07T04:17:30;101600;;;0.6;70.5
85812;BME280;76886;52.146;20.718;2024-03-07T04:18:30;101610;;;0.5;70.7
85812;BME280;76886;52.146;20.718;2024-03-07T04:19:30;101610;;;0.4;71.0
85812;BME280;76886;52.146;20.718;2024-03-07T04:20:30;101600;;;0.3;71.4
85812;BME280;76886;52.146;20.718;2024-03-07T04:21:30;101600;;;0.2;71.7
85812;BME280;76886;52.146;20.718;2024-03-07T04:22:30;101600;;;0.2;72.0
85812;BME280;76886;52.146;20.718;2024-03-07T04:23:30;101610;;;0.1;72.6
85812;BME280;76886;52.146;20.718;2024-03-07T04:24:30;101610;;;0.0;72.9
85812;BME280;76886;52.146;20.718;2024-03-07T04:25:30;101610;;;0.3;72.0
85812;BME280;76886;52.146;20.718;2024-03-07T04:26:30;101610;;;0.3;71.8
85812;BME280;76886;52.146;20.718;2024-03-07T04:27:30;101610;;;0.7;70.6
85812;BME280;76886;52.146;20.718;2024-03-07T04:28:30;101610;;;0.9;69.7
85812;BME280;76886;52.146;20.718;2024-03-07T04:29:30;101610;;;0.9;69.3
85812;BME280;76886;52.146;20.718;2024-03-07T04:30:30;101620;;;1.0;69.0
85812;BME280;76886;52.146;20.718;2024-03-07T04:31:30;101610;;;0.8;69.5
85812;BME280;76886;52.146;20.718;2024-03-07T04:32:30;101620;;;0.7;69.7
85812;BME280;76886;52.146;20.718;2024-03-07T04:33:30;101620;;;0.5;70.3
85812;BME280;76886;52.146;20.718;2024-03-07T04:34:30;101610;;;0.3;71.4
85812;BME280;76886;52.146;20.718;2024-03-07T04:35:30;101620;;;0.4;71.2
85812;BME280;76886;52.146;20.718;2024-03-07T04:36:30;101610;;;0.3;71.1
85812;BME280;76886;52.146;20.718;2024-03-07T04:37:30;101610;;;0.2;71.8
85812;BME280;76886;52.146;20.718;2024-03-07T04:38:30;101610;;;0.2;71.9
85812;BME280;76886;52.146;20.718;2024-03-07T04:39:30;101610;;;0.3;71.6
85812;BME280;76886;52.146;20.718;2024-03-07T04:40:30;101610;;;0.1;72.2
85812;BME280;76886;52.146;20.718;2024-03-07T04:41:30;101610;;;0.1;72.5
85812;BME280;76886;52.146;20.718;2024-03-07T04:42:30;101610;;;0.3;71.7
85812;BME280;76886;52.146;20.718;2024-03-07T04:43:30;101610;;;0.1;72.0
85812;BME280;76886;52.146;20.718;2024-03-07T04:44:30;101610;;;0.1;72.3
85812;BME280;76886;52.146;20.718;2024-03-07T04:45:30;101610;;;-0.0;72.5
85812;BME280;76886;52.146;20.718;2024-03-07T04:46:30;101610;;;0.2;72.3
85812;BME280;76886;52.146;20.718;2024-03-07T04:47:30;101620;;;0.4;71.4
85812;BME280;76886;52.146;20.718;2024-03-07T04:48:30;101610;;;0.4;70.8
85812;BME280;76886;52.146;20.718;2024-03-07T04:49:31;101610;;;0.3;71.4
85812;BME280;76886;52.146;20.718;2024-03-07T04:50:30;101610;;;0.3;71.2
85812;BME280;76886;52.146;20.718;2024-03-07T04:51:30;101620;;;0.3;71.3
85812;BME280;76886;52.146;20.718;2024-03-07T04:52:30;101620;;;0.4;71.3
85812;BME280;76886;52.146;20.718;2024-03-07T04:53:30;101620;;;0.4;70.9
85812;BME280;76886;52.146;20.718;2024-03-07T04:54:30;101620;;;0.3;70.9
85812;BME280;76886;52.146;20.718;2024-03-07T04:55:30;101620;;;0.3;71.0
85812;BME280;76886;52.146;20.718;2024-03-07T04:56:30;101620;;;0.2;71.5
85812;BME280;76886;52.146;20.718;2024-03-07T04:57:30;101620;;;-0.1;72.5
85812;BME280;76886;52.146;20.718;2024-03-07T04:58:30;101630;;;-0.3;73.2
85812;BME280;76886;52.146;20.718;2024-03-07T04:59:30;101630;;;-0.3;73.8
85812;BME280;76886;52.146;20.718;2024-03-07T05:00:30;101630;;;-0.3;73.6
85812;BME280;76886;52.146;20.718;2024-03-07T05:01:30;101630;;;-0.4;74.2
85812;BME280;76886;52.146;20.718;2024-03-07T05:02:30;101630;;;-0.4;73.9
85812;BME280;76886;52.146;20.718;2024-03-07T05:03:30;101620;;;-0.4;74.4
85812;BME280;76886;52.146;20.718;2024-03-07T05:04:30;101630;;;-0.5;74.9
85812;BME280;76886;52.146;20.718;2024-03-07T05:05:30;101630;;;-0.6;74.9
85812;BME280;76886;52.146;20.718;2024-03-07T05:06:30;101630;;;-0.7;75.2
85812;BME280;76886;52.146;20.718;2024-03-07T05:07:30;101630;;;-0.6;75.1
85812;BME280;76886;52.146;20.718;2024-03-07T05:08:30;101630;;;-0.5;75.2
85812;BME280;76886;52.146;20.718;2024-03-07T05:09:30;101640;;;-0.5;74.7
85812;BME280;76886;52.146;20.718;2024-03-07T05:10:30;101640;;;-0.5;74.5
85812;BME280;76886;52.146;20.718;2024-03-07T05:11:30;101640;;;-0.5;74.5
85812;BME280;76886;52.146;20.718;2024-03-07T05:12:30;101640;;;-0.5;74.6
85812;BME280;76886;52.146;20.718;2024-03-07T05:13:30;101640;;;-0.3;74.2
85812;BME280;76886;52.146;20.718;2024-03-07T05:14:30;101640;;;-0.3;74.0
85812;BME280;76886;52.146;20.718;2024-03-07T05:15:30;101640;;;-0.4;74.2
85812;BME280;76886;52.146;20.718;2024-03-07T05:16:30;101640;;;-0.4;74.5
85812;BME280;76886;52.146;20.718;2024-03-07T05:17:30;101640;;;-0.3;74.0
85812;BME280;76886;52.146;20.718;2024-03-07T05:18:30;101640;;;-0.2;73.5
85812;BME280;76886;52.146;20.718;2024-03-07T05:19:34;101640;;;-0.2;73.3
85812;BME280;76886;52.146;20.718;2024-03-07T05:20:30;101640;;;-0.2;73.4
85812;BME280;76886;52.146;20.718;2024-03-07T05:21:30;101640;;;-0.4;73.7
85812;BME280;76886;52.146;20.718;2024-03-07T05:22:30;101640;;;-0.4;74.2
85812;BME280;76886;52.146;20.718;2024-03-07T05:23:30;101640;;;-0.6;74.7
85812;BME280;76886;52.146;20.718;2024-03-07T05:24:30;101640;;;-0.4;74.6
85812;BME280;76886;52.146;20.718;2024-03-07T05:25:30;101640;;;-0.6;74.9
85812;BME280;76886;52.146;20.718;2024-03-07T05:26:31;101640;;;-0.3;74.2
85812;BME280;76886;52.146;20.718;2024-03-07T05:27:30;101650;;;-0.1;73.4
85812;BME280;76886;52.146;20.718;2024-03-07T05:28:30;101650;;;0.2;72.1
85812;BME280;76886;52.146;20.718;2024-03-07T05:29:30;101650;;;0.2;71.5
85812;BME280;76886;52.146;20.718;2024-03-07T05:30:30;101650;;;0.1;71.6
85812;BME280;76886;52.146;20.718;2024-03-07T05:31:31;101640;;;-0.1;72.4
85812;BME280;76886;52.146;20.718;2024-03-07T05:32:30;101650;;;0.0;72.4
85812;BME280;76886;52.146;20.718;2024-03-07T05:33:30;101650;;;0.1;72.0
85812;BME280;76886;52.146;20.718;2024-03-07T05:34:30;101650;;;0.1;72.5
85812;BME280;76886;52.146;20.718;2024-03-07T05:35:30;101640;;;0.4;71.2
85812;BME280;76886;52.146;20.718;2024-03-07T05:36:31;101650;;;0.4;70.6
85812;BME280;76886;52.146;20.718;2024-03-07T05:37:30;101650;;;0.3;71.3
85812;BME280;76886;52.146;20.718;2024-03-07T05:38:30;101650;;;0.4;71.3
85812;BME280;76886;52.146;20.718;2024-03-07T05:39:30;101650;;;0.4;70.9
85812;BME280;76886;52.146;20.718;2024-03-07T05:40:30;101650;;;0.5;70.3
85812;BME280;76886;52.146;20.718;2024-03-07T05:41:30;101650;;;0.4;70.7